sensor_id;sensor_type;location;lat;lon;timestamp;P1;durP1;ratioP1;P2;durP2;ratioP2
65477;SDS011;53678;39.642;22.430;2023-02-18T00:02:16;103.50;;;53.38;;
65477;SDS011;53678;39.642;22.430;2023-02-18T00:04:42;92.25;;;50.00;;
65477;SDS011;53678;39.642;22.430;2023-02-18T00:07:07;95.25;;;51.17;;
65477;SDS011;53678;39.642;22.430;2023-02-18T00:09:33;91.18;;;48.60;;
65477;SDS011;53678;39.642;22.430;2023-02-18T00:11:59;91.40;;;45.28;;
65477;SDS011;53678;39.642;22.430;2023-02-18T00:14:25;85.78;;;45.63;;
65477;SDS011;53678;39.642;22.430;2023-02-18T00:16:51;82.95;;;41.40;;
65477;SDS011;53678;39.642;22.430;2023-02-18T00:19:17;84.82;;;43.22;;
65477;SDS011;53678;39.642;22.430;2023-02-18T00:21:44;81.22;;;42.90;;
65477;SDS011;53678;39.642;22.430;2023-02-18T00:24:11;76.22;;;38.20;;
65477;SDS011;53678;39.642;22.430;2023-02-18T00:26:39;71.00;;;37.85;;
65477;SDS011;53678;39.642;22.430;2023-02-18T00:29:06;69.95;;;36.13;;
65477;SDS011;53678;39.642;22.430;2023-02-18T00:31:33;61.80;;;33.75;;
65477;SDS011;53678;39.642;22.430;2023-02-18T00:34:02;67.45;;;31.58;;
65477;SDS011;53678;39.642;22.430;2023-02-18T00:36:29;58.22;;;31.13;;
65477;SDS011;53678;39.642;22.430;2023-02-18T00:38:57;62.63;;;31.98;;
65477;SDS011;53678;39.642;22.430;2023-02-18T00:41:24;51.17;;;29.83;;
65477;SDS011;53678;39.642;22.430;2023-02-18T00:43:51;56.50;;;31.52;;
65477;SDS011;53678;39.642;22.430;2023-02-18T00:46:18;58.60;;;32.83;;
65477;SDS011;53678;39.642;22.430;2023-02-18T00:48:45;71.40;;;37.00;;
65477;SDS011;53678;39.642;22.430;2023-02-18T00:51:11;85.38;;;45.53;;
65477;SDS011;53678;39.642;22.430;2023-02-18T00:53:37;89.47;;;48.08;;
65477;SDS011;53678;39.642;22.430;2023-02-18T00:56:03;83.28;;;43.38;;
65477;SDS011;53678;39.642;22.430;2023-02-18T00:58:30;86.28;;;45.20;;
65477;SDS011;53678;39.642;22.430;2023-02-18T01:00:57;77.55;;;42.55;;
65477;SDS011;53678;39.642;22.430;2023-02-18T01:03:23;81.63;;;46.00;;
65477;SDS011;53678;39.642;22.430;2023-02-18T01:05:50;86.03;;;46.05;;
65477;SDS011;53678;39.642;22.430;2023-02-18T01:08:17;78.93;;;43.30;;
65477;SDS011;53678;39.642;22.430;2023-02-18T01:10:45;76.85;;;39.83;;
65477;SDS011;53678;39.642;22.430;2023-02-18T01:13:12;79.18;;;42.53;;
65477;SDS011;53678;39.642;22.430;2023-02-18T01:15:41;89.78;;;46.05;;
65477;SDS011;53678;39.642;22.430;2023-02-18T01:18:09;94.47;;;49.05;;
65477;SDS011;53678;39.642;22.430;2023-02-18T01:20:36;96.85;;;47.78;;
65477;SDS011;53678;39.642;22.430;2023-02-18T01:23:03;91.85;;;48.58;;
65477;SDS011;53678;39.642;22.430;2023-02-18T01:25:29;95.03;;;48.67;;
65477;SDS011;53678;39.642;22.430;2023-02-18T01:27:56;81.47;;;42.80;;
65477;SDS011;53678;39.642;22.430;2023-02-18T01:30:22;88.80;;;46.30;;
65477;SDS011;53678;39.642;22.430;2023-02-18T01:32:48;99.50;;;50.50;;
65477;SDS011;53678;39.642;22.430;2023-02-18T01:35:15;97.97;;;45.55;;
65477;SDS011;53678;39.642;22.430;2023-02-18T01:37:43;82.55;;;44.38;;
65477;SDS011;53678;39.642;22.430;2023-02-18T01:40:11;91.63;;;47.40;;
65477;SDS011;53678;39.642;22.430;2023-02-18T01:42:40;89.70;;;46.83;;
65477;SDS011;53678;39.642;22.430;2023-02-18T01:48:00;82.75;;;43.47;;
65477;SDS011;53678;39.642;22.430;2023-02-18T01:50:37;82.63;;;41.17;;
65477;SDS011;53678;39.642;22.430;2023-02-18T01:53:07;78.32;;;41.03;;
65477;SDS011;53678;39.642;22.430;2023-02-18T01:55:34;77.28;;;40.08;;
65477;SDS011;53678;39.642;22.430;2023-02-18T01:58:04;81.28;;;41.35;;
65477;SDS011;53678;39.642;22.430;2023-02-18T02:00:30;76.43;;;38.50;;
65477;SDS011;53678;39.642;22.430;2023-02-18T02:02:57;72.25;;;38.53;;
65477;SDS011;53678;39.642;22.430;2023-02-18T02:05:22;80.93;;;39.10;;
65477;SDS011;53678;39.642;22.430;2023-02-18T02:07:49;81.22;;;39.58;;
65477;SDS011;53678;39.642;22.430;2023-02-18T02:10:18;72.25;;;37.13;;
65477;SDS011;53678;39.642;22.430;2023-02-18T02:18:44;73.22;;;37.60;;
65477;SDS011;53678;39.642;22.430;2023-02-18T02:34:57;68.72;;;37.72;;
65477;SDS011;53678;39.642;22.430;2023-02-18T02:48:37;69.68;;;34.10;;
65477;SDS011;53678;39.642;22.430;2023-02-18T02:53:36;59.13;;;32.15;;
65477;SDS011;53678;39.642;22.430;2023-02-18T02:56:09;59.25;;;33.92;;
65477;SDS011;53678;39.642;22.430;2023-02-18T02:58:40;62.03;;;35.10;;
65477;SDS011;53678;39.642;22.430;2023-02-18T03:09:38;70.00;;;34.45;;
65477;SDS011;53678;39.642;22.430;2023-02-18T03:12:11;65.28;;;34.67;;
65477;SDS011;53678;39.642;22.430;2023-02-18T03:14:52;71.55;;;35.38;;
65477;SDS011;53678;39.642;22.430;2023-02-18T03:17:34;68.65;;;34.72;;
65477;SDS011;53678;39.642;22.430;2023-02-18T03:20:12;66.55;;;32.72;;
65477;SDS011;53678;39.642;22.430;2023-02-18T03:22:48;60.20;;;31.90;;
65477;SDS011;53678;39.642;22.430;2023-02-18T03:25:16;56.83;;;31.10;;
65477;SDS011;53678;39.642;22.430;2023-02-18T03:30:22;63.55;;;32.58;;
65477;SDS011;53678;39.642;22.430;2023-02-18T03:32:51;62.53;;;33.85;;
65477;SDS011;53678;39.642;22.430;2023-02-18T03:35:22;62.55;;;34.80;;
65477;SDS011;53678;39.642;22.430;2023-02-18T03:37:50;72.20;;;36.40;;
65477;SDS011;53678;39.642;22.430;2023-02-18T03:40:33;77.95;;;38.08;;
65477;SDS011;53678;39.642;22.430;2023-02-18T03:43:00;74.70;;;36.83;;
65477;SDS011;53678;39.642;22.430;2023-02-18T03:45:26;73.97;;;38.50;;
65477;SDS011;53678;39.642;22.430;2023-02-18T03:47:52;80.00;;;39.67;;
65477;SDS011;53678;39.642;22.430;2023-02-18T03:50:18;69.18;;;34.35;;
65477;SDS011;53678;39.642;22.430;2023-02-18T03:52:44;71.43;;;33.45;;
65477;SDS011;53678;39.642;22.430;2023-02-18T03:55:10;67.68;;;34.15;;
65477;SDS011;53678;39.642;22.430;2023-02-18T03:57:36;54.05;;;30.00;;
65477;SDS011;53678;39.642;22.430;2023-02-18T04:00:02;64.07;;;33.08;;
65477;SDS011;53678;39.642;22.430;2023-02-18T04:02:38;55.65;;;30.40;;
65477;SDS011;53678;39.642;22.430;2023-02-18T04:05:04;54.60;;;31.13;;
65477;SDS011;53678;39.642;22.430;2023-02-18T04:07:31;61.55;;;31.30;;
65477;SDS011;53678;39.642;22.430;2023-02-18T04:09:57;59.47;;;32.78;;
65477;SDS011;53678;39.642;22.430;2023-02-18T04:12:23;60.13;;;31.48;;
65477;SDS011;53678;39.642;22.430;2023-02-18T04:14:49;65.28;;;34.15;;
65477;SDS011;53678;39.642;22.430;2023-02-18T04:17:17;69.10;;;35.10;;
65477;SDS011;53678;39.642;22.430;2023-02-18T04:19:43;70.60;;;33.95;;
65477;SDS011;53678;39.642;22.430;2023-02-18T04:22:08;73.45;;;35.38;;
65477;SDS011;53678;39.642;22.430;2023-02-18T04:24:34;74.85;;;34.90;;
65477;SDS011;53678;39.642;22.430;2023-02-18T04:27:00;67.05;;;33.53;;
65477;SDS011;53678;39.642;22.430;2023-02-18T04:29:25;63.50;;;32.90;;
65477;SDS011;53678;39.642;22.430;2023-02-18T04:31:51;66.25;;;31.83;;
65477;SDS011;53678;39.642;22.430;2023-02-18T04:34:17;58.08;;;31.05;;
65477;SDS011;53678;39.642;22.430;2023-02-18T04:36:42;68.00;;;35.15;;
65477;SDS011;53678;39.642;22.430;2023-02-18T04:39:08;67.10;;;34.35;;
65477;SDS011;53678;39.642;22.430;2023-02-18T04:41:34;63.50;;;31.20;;
65477;SDS011;53678;39.642;22.430;2023-02-18T04:44:00;70.00;;;35.53;;
65477;SDS011;53678;39.642;22.430;2023-02-18T04:46:25;64.85;;;32.67;;
65477;SDS011;53678;39.642;22.430;2023-02-18T04:48:51;66.43;;;32.90;;
65477;SDS011;53678;39.642;22.430;2023-02-18T04:51:17;72.07;;;34.42;;
65477;SDS011;53678;39.642;22.430;2023-02-18T04:53:42;67.85;;;36.00;;
65477;SDS011;53678;39.642;22.430;2023-02-18T04:56:08;61.05;;;31.30;;
65477;SDS011;53678;39.642;22.430;2023-02-18T04:58:34;61.22;;;32.72;;
65477;SDS011;53678;39.642;22.430;2023-02-18T05:01:00;78.88;;;36.20;;
65477;SDS011;53678;39.642;22.430;2023-02-18T05:03:27;63.47;;;35.08;;
65477;SDS011;53678;39.642;22.430;2023-02-18T05:05:54;72.03;;;35.13;;
65477;SDS011;53678;39.642;22.430;2023-02-18T05:08:20;65.25;;;35.25;;
65477;SDS011;53678;39.642;22.430;2023-02-18T05:10:46;67.75;;;35.10;;
65477;SDS011;53678;39.642;22.430;2023-02-18T05:13:11;68.75;;;36.30;;
65477;SDS011;53678;39.642;22.430;2023-02-18T05:15:37;65.68;;;32.63;;
65477;SDS011;53678;39.642;22.430;2023-02-18T05:18:03;61.65;;;33.10;;
65477;SDS011;53678;39.642;22.430;2023-02-18T05:20:29;59.90;;;33.03;;
65477;SDS011;53678;39.642;22.430;2023-02-18T05:22:55;59.30;;;30.20;;
65477;SDS011;53678;39.642;22.430;2023-02-18T05:25:20;61.20;;;31.42;;
65477;SDS011;53678;39.642;22.430;2023-02-18T05:27:46;67.07;;;33.47;;
65477;SDS011;53678;39.642;22.430;2023-02-18T05:30:12;62.10;;;32.08;;
65477;SDS011;53678;39.642;22.430;2023-02-18T05:32:38;59.05;;;29.88;;
65477;SDS011;53678;39.642;22.430;2023-02-18T05:35:07;60.60;;;30.65;;
65477;SDS011;53678;39.642;22.430;2023-02-18T05:37:32;55.58;;;28.67;;
65477;SDS011;53678;39.642;22.430;2023-02-18T05:39:58;48.53;;;27.60;;
65477;SDS011;53678;39.642;22.430;2023-02-18T05:42:24;42.30;;;25.42;;
65477;SDS011;53678;39.642;22.430;2023-02-18T05:44:53;65.35;;;31.00;;
65477;SDS011;53678;39.642;22.430;2023-02-18T05:47:24;68.60;;;35.13;;
65477;SDS011;53678;39.642;22.430;2023-02-18T05:49:49;70.57;;;34.88;;
65477;SDS011;53678;39.642;22.430;2023-02-18T05:52:17;71.75;;;35.10;;
65477;SDS011;53678;39.642;22.430;2023-02-18T05:54:43;84.43;;;37.08;;
65477;SDS011;53678;39.642;22.430;2023-02-18T05:57:12;71.72;;;36.25;;
65477;SDS011;53678;39.642;22.430;2023-02-18T05:59:40;87.47;;;39.33;;
65477;SDS011;53678;39.642;22.430;2023-02-18T06:02:06;82.22;;;42.70;;
65477;SDS011;53678;39.642;22.430;2023-02-18T06:04:32;66.68;;;36.70;;
65477;SDS011;53678;39.642;22.430;2023-02-18T06:06:57;79.72;;;39.15;;
65477;SDS011;53678;39.642;22.430;2023-02-18T06:09:23;72.15;;;37.17;;
65477;SDS011;53678;39.642;22.430;2023-02-18T06:11:49;64.47;;;35.97;;
65477;SDS011;53678;39.642;22.430;2023-02-18T06:14:15;61.47;;;30.95;;
65477;SDS011;53678;39.642;22.430;2023-02-18T06:16:41;57.45;;;33.88;;
65477;SDS011;53678;39.642;22.430;2023-02-18T06:19:07;69.80;;;36.13;;
65477;SDS011;53678;39.642;22.430;2023-02-18T06:21:35;59.90;;;31.70;;
65477;SDS011;53678;39.642;22.430;2023-02-18T06:24:04;55.55;;;29.67;;
65477;SDS011;53678;39.642;22.430;2023-02-18T06:26:30;57.22;;;33.00;;
65477;SDS011;53678;39.642;22.430;2023-02-18T06:28:56;61.03;;;32.70;;
65477;SDS011;53678;39.642;22.430;2023-02-18T06:31:22;60.10;;;33.78;;
65477;SDS011;53678;39.642;22.430;2023-02-18T06:33:48;48.50;;;30.15;;
65477;SDS011;53678;39.642;22.430;2023-02-18T06:36:13;46.83;;;28.02;;
65477;SDS011;53678;39.642;22.430;2023-02-18T06:38:40;49.85;;;28.13;;
65477;SDS011;53678;39.642;22.430;2023-02-18T06:41:07;42.30;;;27.90;;
65477;SDS011;53678;39.642;22.430;2023-02-18T06:43:33;48.25;;;29.75;;
65477;SDS011;53678;39.642;22.430;2023-02-18T06:46:00;52.38;;;31.65;;
65477;SDS011;53678;39.642;22.430;2023-02-18T06:48:26;64.50;;;32.78;;
65477;SDS011;53678;39.642;22.430;2023-02-18T06:50:53;51.50;;;30.15;;
65477;SDS011;53678;39.642;22.430;2023-02-18T06:53:19;49.00;;;29.92;;
65477;SDS011;53678;39.642;22.430;2023-02-18T06:55:45;49.20;;;28.67;;
65477;SDS011;53678;39.642;22.430;2023-02-18T06:58:11;46.35;;;29.35;;
65477;SDS011;53678;39.642;22.430;2023-02-18T07:00:37;42.65;;;27.65;;
65477;SDS011;53678;39.642;22.430;2023-02-18T07:03:04;42.92;;;27.50;;
65477;SDS011;53678;39.642;22.430;2023-02-18T07:05:30;37.20;;;23.55;;
65477;SDS011;53678;39.642;22.430;2023-02-18T07:07:56;40.13;;;22.90;;
65477;SDS011;53678;39.642;22.430;2023-02-18T07:10:22;37.55;;;21.63;;
65477;SDS011;53678;39.642;22.430;2023-02-18T07:12:48;37.25;;;23.30;;
65477;SDS011;53678;39.642;22.430;2023-02-18T07:15:14;53.20;;;31.67;;
65477;SDS011;53678;39.642;22.430;2023-02-18T07:17:41;38.70;;;23.40;;
65477;SDS011;53678;39.642;22.430;2023-02-18T07:20:07;39.13;;;22.17;;
65477;SDS011;53678;39.642;22.430;2023-02-18T07:22:33;45.42;;;24.63;;
65477;SDS011;53678;39.642;22.430;2023-02-18T07:24:59;43.10;;;24.40;;
65477;SDS011;53678;39.642;22.430;2023-02-18T07:27:25;41.00;;;23.52;;
65477;SDS011;53678;39.642;22.430;2023-02-18T07:29:50;39.08;;;22.80;;
65477;SDS011;53678;39.642;22.430;2023-02-18T07:32:17;43.70;;;25.10;;
65477;SDS011;53678;39.642;22.430;2023-02-18T07:34:44;36.47;;;22.55;;
65477;SDS011;53678;39.642;22.430;2023-02-18T07:37:10;42.83;;;23.38;;
65477;SDS011;53678;39.642;22.430;2023-02-18T07:39:40;41.85;;;22.67;;
65477;SDS011;53678;39.642;22.430;2023-02-18T07:42:07;39.22;;;22.40;;
65477;SDS011;53678;39.642;22.430;2023-02-18T07:44:34;41.95;;;23.92;;
65477;SDS011;53678;39.642;22.430;2023-02-18T07:47:00;37.38;;;21.75;;
65477;SDS011;53678;39.642;22.430;2023-02-18T07:49:26;37.70;;;20.95;;
65477;SDS011;53678;39.642;22.430;2023-02-18T07:51:52;43.97;;;24.20;;
65477;SDS011;53678;39.642;22.430;2023-02-18T07:54:18;43.28;;;24.75;;
65477;SDS011;53678;39.642;22.430;2023-02-18T07:56:44;45.80;;;26.17;;
65477;SDS011;53678;39.642;22.430;2023-02-18T07:59:10;47.22;;;27.92;;
65477;SDS011;53678;39.642;22.430;2023-02-18T08:01:36;48.83;;;28.33;;
65477;SDS011;53678;39.642;22.430;2023-02-18T08:04:02;59.03;;;30.85;;
65477;SDS011;53678;39.642;22.430;2023-02-18T08:06:38;48.05;;;27.98;;
65477;SDS011;53678;39.642;22.430;2023-02-18T08:09:05;48.42;;;27.48;;
65477;SDS011;53678;39.642;22.430;2023-02-18T08:11:31;48.80;;;28.27;;
65477;SDS011;53678;39.642;22.430;2023-02-18T08:13:58;48.72;;;28.88;;
65477;SDS011;53678;39.642;22.430;2023-02-18T08:16:25;43.60;;;26.95;;
65477;SDS011;53678;39.642;22.430;2023-02-18T08:18:51;45.70;;;25.83;;
65477;SDS011;53678;39.642;22.430;2023-02-18T08:21:18;39.65;;;24.48;;
65477;SDS011;53678;39.642;22.430;2023-02-18T08:23:45;49.20;;;28.33;;
65477;SDS011;53678;39.642;22.430;2023-02-18T08:26:11;45.85;;;28.98;;
65477;SDS011;53678;39.642;22.430;2023-02-18T08:28:40;40.40;;;26.95;;
65477;SDS011;53678;39.642;22.430;2023-02-18T08:31:07;39.95;;;24.70;;
65477;SDS011;53678;39.642;22.430;2023-02-18T08:33:40;46.53;;;26.15;;
65477;SDS011;53678;39.642;22.430;2023-02-18T08:36:06;43.60;;;25.15;;
65477;SDS011;53678;39.642;22.430;2023-02-18T08:38:32;48.55;;;28.38;;
65477;SDS011;53678;39.642;22.430;2023-02-18T08:41:01;48.00;;;27.77;;
65477;SDS011;53678;39.642;22.430;2023-02-18T08:43:30;43.70;;;26.38;;
65477;SDS011;53678;39.642;22.430;2023-02-18T08:45:56;44.30;;;26.10;;
65477;SDS011;53678;39.642;22.430;2023-02-18T08:48:23;47.13;;;29.45;;
65477;SDS011;53678;39.642;22.430;2023-02-18T08:50:49;44.40;;;28.35;;
65477;SDS011;53678;39.642;22.430;2023-02-18T08:53:15;50.60;;;28.02;;
65477;SDS011;53678;39.642;22.430;2023-02-18T08:55:42;44.00;;;26.52;;
65477;SDS011;53678;39.642;22.430;2023-02-18T08:58:08;45.80;;;29.10;;
65477;SDS011;53678;39.642;22.430;2023-02-18T09:00:35;49.97;;;29.65;;
65477;SDS011;53678;39.642;22.430;2023-02-18T09:03:04;44.88;;;27.25;;
65477;SDS011;53678;39.642;22.430;2023-02-18T09:05:30;43.03;;;25.42;;
65477;SDS011;53678;39.642;22.430;2023-02-18T09:07:56;43.17;;;26.40;;
65477;SDS011;53678;39.642;22.430;2023-02-18T09:10:21;45.38;;;28.15;;
65477;SDS011;53678;39.642;22.430;2023-02-18T09:12:47;47.13;;;27.95;;
65477;SDS011;53678;39.642;22.430;2023-02-18T09:15:14;44.47;;;26.08;;
65477;SDS011;53678;39.642;22.430;2023-02-18T09:17:41;45.75;;;27.05;;
65477;SDS011;53678;39.642;22.430;2023-02-18T09:20:10;42.97;;;26.52;;
65477;SDS011;53678;39.642;22.430;2023-02-18T09:22:37;46.08;;;25.20;;
65477;SDS011;53678;39.642;22.430;2023-02-18T09:25:03;39.63;;;24.63;;
65477;SDS011;53678;39.642;22.430;2023-02-18T09:27:29;43.10;;;25.80;;
65477;SDS011;53678;39.642;22.430;2023-02-18T09:29:55;37.58;;;23.60;;
65477;SDS011;53678;39.642;22.430;2023-02-18T09:32:21;38.63;;;23.60;;
65477;SDS011;53678;39.642;22.430;2023-02-18T09:34:46;39.83;;;23.90;;
65477;SDS011;53678;39.642;22.430;2023-02-18T09:37:12;35.78;;;23.83;;
65477;SDS011;53678;39.642;22.430;2023-02-18T09:39:39;37.17;;;23.20;;
65477;SDS011;53678;39.642;22.430;2023-02-18T09:42:12;36.20;;;22.13;;
65477;SDS011;53678;39.642;22.430;2023-02-18T09:44:48;42.50;;;25.10;;
65477;SDS011;53678;39.642;22.430;2023-02-18T09:49:50;43.72;;;26.20;;
65477;SDS011;53678;39.642;22.430;2023-02-18T09:52:23;39.33;;;23.05;;
65477;SDS011;53678;39.642;22.430;2023-02-18T09:54:54;33.70;;;21.60;;
65477;SDS011;53678;39.642;22.430;2023-02-18T10:02:25;42.22;;;24.73;;
65477;SDS011;53678;39.642;22.430;2023-02-18T10:04:52;40.90;;;24.90;;
65477;SDS011;53678;39.642;22.430;2023-02-18T10:07:22;37.28;;;23.90;;
65477;SDS011;53678;39.642;22.430;2023-02-18T10:09:53;36.55;;;22.60;;
65477;SDS011;53678;39.642;22.430;2023-02-18T10:12:21;37.38;;;24.42;;
65477;SDS011;53678;39.642;22.430;2023-02-18T10:14:50;38.65;;;24.00;;
65477;SDS011;53678;39.642;22.430;2023-02-18T10:17:19;36.95;;;22.02;;
65477;SDS011;53678;39.642;22.430;2023-02-18T10:19:48;34.55;;;21.10;;
65477;SDS011;53678;39.642;22.430;2023-02-18T10:22:15;32.83;;;20.10;;
65477;SDS011;53678;39.642;22.430;2023-02-18T10:24:49;49.38;;;24.45;;
65477;SDS011;53678;39.642;22.430;2023-02-18T10:32:50;36.70;;;23.20;;
65477;SDS011;53678;39.642;22.430;2023-02-18T10:36:26;39.92;;;23.70;;
65477;SDS011;53678;39.642;22.430;2023-02-18T10:48:42;35.63;;;23.20;;
65477;SDS011;53678;39.642;22.430;2023-02-18T10:51:18;35.75;;;23.38;;
65477;SDS011;53678;39.642;22.430;2023-02-18T10:53:45;39.47;;;24.50;;
65477;SDS011;53678;39.642;22.430;2023-02-18T10:56:30;40.17;;;23.80;;
65477;SDS011;53678;39.642;22.430;2023-02-18T10:59:31;35.28;;;23.38;;
65477;SDS011;53678;39.642;22.430;2023-02-18T11:01:55;39.47;;;23.20;;
65477;SDS011;53678;39.642;22.430;2023-02-18T11:04:39;34.05;;;21.73;;
65477;SDS011;53678;39.642;22.430;2023-02-18T11:07:09;41.78;;;25.77;;
65477;SDS011;53678;39.642;22.430;2023-02-18T11:09:42;38.55;;;25.40;;
65477;SDS011;53678;39.642;22.430;2023-02-18T11:12:16;40.58;;;25.15;;
65477;SDS011;53678;39.642;22.430;2023-02-18T11:17:44;56.03;;;25.65;;
65477;SDS011;53678;39.642;22.430;2023-02-18T11:22:46;48.60;;;26.35;;
65477;SDS011;53678;39.642;22.430;2023-02-18T11:25:19;38.13;;;24.52;;
65477;SDS011;53678;39.642;22.430;2023-02-18T11:27:59;42.13;;;24.55;;
65477;SDS011;53678;39.642;22.430;2023-02-18T11:30:31;41.70;;;25.67;;
65477;SDS011;53678;39.642;22.430;2023-02-18T11:35:52;37.13;;;23.90;;
65477;SDS011;53678;39.642;22.430;2023-02-18T11:38:33;39.15;;;23.88;;
65477;SDS011;53678;39.642;22.430;2023-02-18T11:41:06;37.40;;;22.60;;
65477;SDS011;53678;39.642;22.430;2023-02-18T11:43:34;35.53;;;20.13;;
65477;SDS011;53678;39.642;22.430;2023-02-18T11:46:10;36.10;;;21.58;;
65477;SDS011;53678;39.642;22.430;2023-02-18T11:48:38;45.22;;;29.23;;
65477;SDS011;53678;39.642;22.430;2023-02-18T11:51:04;43.65;;;28.08;;
65477;SDS011;53678;39.642;22.430;2023-02-18T11:53:31;43.92;;;26.27;;
65477;SDS011;53678;39.642;22.430;2023-02-18T11:56:03;41.45;;;25.63;;
65477;SDS011;53678;39.642;22.430;2023-02-18T11:58:42;40.28;;;24.30;;
65477;SDS011;53678;39.642;22.430;2023-02-18T12:01:12;40.58;;;25.08;;
65477;SDS011;53678;39.642;22.430;2023-02-18T12:06:33;43.78;;;26.75;;
65477;SDS011;53678;39.642;22.430;2023-02-18T12:09:27;44.13;;;27.10;;
65477;SDS011;53678;39.642;22.430;2023-02-18T12:11:58;39.45;;;25.77;;
65477;SDS011;53678;39.642;22.430;2023-02-18T12:14:26;41.63;;;24.60;;
65477;SDS011;53678;39.642;22.430;2023-02-18T12:17:03;37.85;;;22.55;;
65477;SDS011;53678;39.642;22.430;2023-02-18T12:22:49;29.02;;;16.75;;
65477;SDS011;53678;39.642;22.430;2023-02-18T12:36:47;26.73;;;16.70;;
65477;SDS011;53678;39.642;22.430;2023-02-18T12:50:27;20.77;;;11.85;;
65477;SDS011;53678;39.642;22.430;2023-02-18T12:53:31;21.52;;;11.50;;
65477;SDS011;53678;39.642;22.430;2023-02-18T13:13:10;11.10;;;7.30;;
65477;SDS011;53678;39.642;22.430;2023-02-18T13:18:19;17.58;;;9.80;;
65477;SDS011;53678;39.642;22.430;2023-02-18T13:20:50;21.65;;;13.18;;
65477;SDS011;53678;39.642;22.430;2023-02-18T13:23:21;11.02;;;7.63;;
65477;SDS011;53678;39.642;22.430;2023-02-18T13:25:50;15.05;;;7.47;;
65477;SDS011;53678;39.642;22.430;2023-02-18T13:37:49;22.85;;;12.85;;
65477;SDS011;53678;39.642;22.430;2023-02-18T13:42:59;9.13;;;5.15;;
65477;SDS011;53678;39.642;22.430;2023-02-18T13:46:12;8.88;;;5.22;;
65477;SDS011;53678;39.642;22.430;2023-02-18T13:51:31;9.80;;;6.38;;
65477;SDS011;53678;39.642;22.430;2023-02-18T13:56:38;7.50;;;4.63;;
65477;SDS011;53678;39.642;22.430;2023-02-18T13:59:10;8.43;;;4.78;;
65477;SDS011;53678;39.642;22.430;2023-02-18T14:09:55;8.88;;;5.07;;
65477;SDS011;53678;39.642;22.430;2023-02-18T14:22:46;8.27;;;4.38;;
65477;SDS011;53678;39.642;22.430;2023-02-18T14:28:03;9.80;;;5.10;;
65477;SDS011;53678;39.642;22.430;2023-02-18T14:30:49;8.35;;;4.03;;
65477;SDS011;53678;39.642;22.430;2023-02-18T14:33:16;7.35;;;3.88;;
65477;SDS011;53678;39.642;22.430;2023-02-18T14:35:52;6.93;;;4.53;;
65477;SDS011;53678;39.642;22.430;2023-02-18T14:38:44;8.38;;;5.00;;
65477;SDS011;53678;39.642;22.430;2023-02-18T14:41:20;10.45;;;4.90;;
65477;SDS011;53678;39.642;22.430;2023-02-18T14:44:41;7.78;;;4.70;;
65477;SDS011;53678;39.642;22.430;2023-02-18T14:50:15;13.05;;;5.00;;
65477;SDS011;53678;39.642;22.430;2023-02-18T14:55:17;10.63;;;6.00;;
65477;SDS011;53678;39.642;22.430;2023-02-18T14:57:47;9.43;;;4.95;;
65477;SDS011;53678;39.642;22.430;2023-02-18T15:00:22;7.63;;;4.93;;
65477;SDS011;53678;39.642;22.430;2023-02-18T15:02:57;7.85;;;4.88;;
65477;SDS011;53678;39.642;22.430;2023-02-18T15:05:26;8.40;;;5.45;;
65477;SDS011;53678;39.642;22.430;2023-02-18T15:08:00;7.32;;;4.70;;
65477;SDS011;53678;39.642;22.430;2023-02-18T15:13:22;11.68;;;4.65;;
65477;SDS011;53678;39.642;22.430;2023-02-18T15:15:50;9.65;;;5.15;;
65477;SDS011;53678;39.642;22.430;2023-02-18T15:18:20;9.60;;;6.13;;
65477;SDS011;53678;39.642;22.430;2023-02-18T15:21:06;13.10;;;7.55;;
65477;SDS011;53678;39.642;22.430;2023-02-18T15:23:40;16.95;;;9.10;;
65477;SDS011;53678;39.642;22.430;2023-02-18T15:26:06;12.95;;;7.03;;
65477;SDS011;53678;39.642;22.430;2023-02-18T15:28:40;12.38;;;6.30;;
65477;SDS011;53678;39.642;22.430;2023-02-18T15:31:15;10.60;;;5.90;;
65477;SDS011;53678;39.642;22.430;2023-02-18T15:33:42;10.38;;;6.45;;
65477;SDS011;53678;39.642;22.430;2023-02-18T15:36:10;11.05;;;6.13;;
65477;SDS011;53678;39.642;22.430;2023-02-18T15:38:38;9.98;;;6.00;;
65477;SDS011;53678;39.642;22.430;2023-02-18T15:41:09;9.05;;;5.85;;
65477;SDS011;53678;39.642;22.430;2023-02-18T15:43:37;8.48;;;5.30;;
65477;SDS011;53678;39.642;22.430;2023-02-18T15:46:05;7.57;;;5.07;;
65477;SDS011;53678;39.642;22.430;2023-02-18T15:48:44;10.23;;;5.20;;
65477;SDS011;53678;39.642;22.430;2023-02-18T15:51:11;8.25;;;5.53;;
65477;SDS011;53678;39.642;22.430;2023-02-18T15:53:41;8.38;;;6.13;;
65477;SDS011;53678;39.642;22.430;2023-02-18T15:56:13;10.65;;;6.32;;
65477;SDS011;53678;39.642;22.430;2023-02-18T15:59:18;11.40;;;6.55;;
65477;SDS011;53678;39.642;22.430;2023-02-18T16:01:50;15.18;;;8.18;;
65477;SDS011;53678;39.642;22.430;2023-02-18T16:04:21;13.25;;;9.48;;
65477;SDS011;53678;39.642;22.430;2023-02-18T16:06:48;15.35;;;9.35;;
65477;SDS011;53678;39.642;22.430;2023-02-18T16:09:24;19.10;;;11.48;;
65477;SDS011;53678;39.642;22.430;2023-02-18T16:11:55;15.57;;;10.00;;
65477;SDS011;53678;39.642;22.430;2023-02-18T16:17:04;15.38;;;10.50;;
65477;SDS011;53678;39.642;22.430;2023-02-18T16:19:32;17.10;;;10.15;;
65477;SDS011;53678;39.642;22.430;2023-02-18T16:22:03;16.00;;;10.75;;
65477;SDS011;53678;39.642;22.430;2023-02-18T16:24:30;18.23;;;12.55;;
65477;SDS011;53678;39.642;22.430;2023-02-18T16:27:03;19.35;;;11.90;;
65477;SDS011;53678;39.642;22.430;2023-02-18T16:29:36;22.05;;;13.85;;
65477;SDS011;53678;39.642;22.430;2023-02-18T16:32:06;21.85;;;13.75;;
65477;SDS011;53678;39.642;22.430;2023-02-18T16:34:32;24.92;;;14.48;;
65477;SDS011;53678;39.642;22.430;2023-02-18T16:37:00;23.85;;;13.73;;
65477;SDS011;53678;39.642;22.430;2023-02-18T16:39:44;22.98;;;14.70;;
65477;SDS011;53678;39.642;22.430;2023-02-18T16:42:10;27.02;;;14.80;;
65477;SDS011;53678;39.642;22.430;2023-02-18T16:44:37;28.13;;;15.57;;
65477;SDS011;53678;39.642;22.430;2023-02-18T16:47:03;20.33;;;13.18;;
65477;SDS011;53678;39.642;22.430;2023-02-18T16:49:30;20.45;;;13.38;;
65477;SDS011;53678;39.642;22.430;2023-02-18T16:51:57;20.45;;;12.60;;
65477;SDS011;53678;39.642;22.430;2023-02-18T16:54:25;23.55;;;14.30;;
65477;SDS011;53678;39.642;22.430;2023-02-18T16:56:52;23.00;;;15.65;;
65477;SDS011;53678;39.642;22.430;2023-02-18T16:59:18;24.42;;;15.68;;
65477;SDS011;53678;39.642;22.430;2023-02-18T17:01:44;29.63;;;19.45;;
65477;SDS011;53678;39.642;22.430;2023-02-18T17:04:11;33.53;;;21.77;;
65477;SDS011;53678;39.642;22.430;2023-02-18T17:06:39;34.88;;;21.70;;
65477;SDS011;53678;39.642;22.430;2023-02-18T17:09:10;72.28;;;40.92;;
65477;SDS011;53678;39.642;22.430;2023-02-18T17:11:41;51.28;;;28.83;;
65477;SDS011;53678;39.642;22.430;2023-02-18T17:14:15;59.33;;;32.75;;
65477;SDS011;53678;39.642;22.430;2023-02-18T17:16:48;83.22;;;47.92;;
65477;SDS011;53678;39.642;22.430;2023-02-18T17:19:17;84.07;;;46.50;;
65477;SDS011;53678;39.642;22.430;2023-02-18T17:21:43;84.00;;;49.25;;